sensor_id;sensor_type;location;lat;lon;timestamp;pressure;altitude;pressure_sealevel;temperature;humidity
73334;BME280;61561;43.538;-5.670;2022-08-21T01:01:53;101962.94;;;22.77;77.79
73334;BME280;61561;43.538;-5.670;2022-08-21T01:04:19;101903.75;;;22.51;77.53
73334;BME280;61561;43.538;-5.670;2022-08-21T01:06:45;101907.63;;;22.50;76.91
73334;BME280;61561;43.538;-5.670;2022-08-21T01:09:13;101954.94;;;22.89;76.95
73334;BME280;61561;43.538;-5.670;2022-08-21T01:11:53;101936.91;;;22.78;77.00
73334;BME280;61561;43.538;-5.670;2022-08-21T01:14:19;101927.22;;;22.67;77.33
73334;BME280;61561;43.538;-5.670;2022-08-21T01:16:48;101936.69;;;22.61;77.34
73334;BME280;61561;43.538;-5.670;2022-08-21T01:19:16;101945.94;;;22.70;77.34
73334;BME280;61561;43.538;-5.670;2022-08-21T01:21:42;101952.25;;;22.84;77.03
73334;BME280;61561;43.538;-5.670;2022-08-21T01:24:09;101940.22;;;22.80;77.26
73334;BME280;61561;43.538;-5.670;2022-08-21T01:26:36;101930.16;;;22.84;76.85
73334;BME280;61561;43.538;-5.670;2022-08-21T01:31:41;101911.75;;;22.66;76.92
73334;BME280;61561;43.538;-5.670;2022-08-21T01:34:14;101885.31;;;22.46;76.31
73334;BME280;61561;43.538;-5.670;2022-08-21T01:36:43;101926.06;;;22.68;76.99
73334;BME280;61561;43.538;-5.670;2022-08-21T01:39:11;101915.50;;;22.57;76.89
73334;BME280;61561;43.538;-5.670;2022-08-21T01:41:38;101910.09;;;22.52;76.70
73334;BME280;61561;43.538;-5.670;2022-08-21T01:44:04;101932.63;;;22.72;76.51
73334;BME280;61561;43.538;-5.670;2022-08-21T01:46:31;101920.03;;;22.66;76.65
73334;BME280;61561;43.538;-5.670;2022-08-21T01:52:07;101929.78;;;22.77;76.66
73334;BME280;61561;43.538;-5.670;2022-08-21T01:54:33;101911.13;;;22.69;76.20
73334;BME280;61561;43.538;-5.670;2022-08-21T01:56:59;101898.00;;;22.61;75.93
73334;BME280;61561;43.538;-5.670;2022-08-21T01:59:26;101903.38;;;22.71;76.41
73334;BME280;61561;43.538;-5.670;2022-08-21T02:01:52;101913.38;;;22.81;76.14
73334;BME280;61561;43.538;-5.670;2022-08-21T02:04:20;101915.53;;;22.70;76.81
73334;BME280;61561;43.538;-5.670;2022-08-21T02:06:52;101877.44;;;22.54;76.07
73334;BME280;61561;43.538;-5.670;2022-08-21T02:09:20;101915.63;;;22.79;75.89
73334;BME280;61561;43.538;-5.670;2022-08-21T02:11:47;101897.31;;;22.69;76.06
73334;BME280;61561;43.538;-5.670;2022-08-21T02:14:14;101864.22;;;22.37;76.71
73334;BME280;61561;43.538;-5.670;2022-08-21T02:16:42;101846.00;;;22.36;76.23
73334;BME280;61561;43.538;-5.670;2022-08-21T02:19:13;101850.13;;;22.38;75.78
73334;BME280;61561;43.538;-5.670;2022-08-21T02:21:39;101897.41;;;22.64;75.87
73334;BME280;61561;43.538;-5.670;2022-08-21T02:24:06;101887.25;;;22.60;75.54
73334;BME280;61561;43.538;-5.670;2022-08-21T02:26:32;101859.75;;;22.41;75.57
73334;BME280;61561;43.538;-5.670;2022-08-21T02:28:59;101884.13;;;22.66;75.61
73334;BME280;61561;43.538;-5.670;2022-08-21T02:31:25;101846.84;;;22.36;75.91
73334;BME280;61561;43.538;-5.670;2022-08-21T02:33:51;101902.22;;;22.72;75.80
73334;BME280;61561;43.538;-5.670;2022-08-21T02:36:18;101861.78;;;22.49;75.97
73334;BME280;61561;43.538;-5.670;2022-08-21T02:38:45;101886.97;;;22.75;75.44
73334;BME280;61561;43.538;-5.670;2022-08-21T02:41:14;101867.81;;;22.51;76.11
73334;BME280;61561;43.538;-5.670;2022-08-21T02:43:41;101890.47;;;22.67;75.48
73334;BME280;61561;43.538;-5.670;2022-08-21T02:46:08;101898.63;;;22.72;76.24
73334;BME280;61561;43.538;-5.670;2022-08-21T02:51:58;101869.97;;;22.54;75.58
73334;BME280;61561;43.538;-5.670;2022-08-21T02:54:24;101872.41;;;22.56;75.75
73334;BME280;61561;43.538;-5.670;2022-08-21T02:56:50;101888.72;;;22.71;75.69
73334;BME280;61561;43.538;-5.670;2022-08-21T02:59:16;101886.78;;;22.71;75.67
73334;BME280;61561;43.538;-5.670;2022-08-21T12:30:21;101917.41;;;25.57;62.32
73334;BME280;61561;43.538;-5.670;2022-08-21T12:32:56;101900.41;;;25.67;62.15
73334;BME280;61561;43.538;-5.670;2022-08-21T12:35:40;101884.75;;;25.71;61.88
73334;BME280;61561;43.538;-5.670;2022-08-21T12:38:26;101904.00;;;25.76;61.52
73334;BME280;61561;43.538;-5.670;2022-08-21T12:43:29;101900.09;;;25.77;61.46
73334;BME280;61561;43.538;-5.670;2022-08-21T12:45:56;101896.28;;;25.82;61.48
73334;BME280;61561;43.538;-5.670;2022-08-21T12:48:57;101922.56;;;26.01;60.75
73334;BME280;61561;43.538;-5.670;2022-08-21T12:51:27;101929.09;;;26.05;60.69
73334;BME280;61561;43.538;-5.670;2022-08-21T12:53:58;101915.25;;;25.88;61.23
73334;BME280;61561;43.538;-5.670;2022-08-21T12:56:29;101908.38;;;25.94;61.08
73334;BME280;61561;43.538;-5.670;2022-08-21T12:59:07;101927.66;;;25.99;60.97
73334;BME280;61561;43.538;-5.670;2022-08-21T13:01:39;101883.38;;;25.86;60.91
73334;BME280;61561;43.538;-5.670;2022-08-21T13:07:35;101861.19;;;25.77;61.01
73334;BME280;61561;43.538;-5.670;2022-08-21T13:12:38;101876.84;;;25.90;60.70
73334;BME280;61561;43.538;-5.670;2022-08-21T13:19:16;101922.22;;;26.11;60.45
73334;BME280;61561;43.538;-5.670;2022-08-21T13:21:52;101913.22;;;26.15;60.00
73334;BME280;61561;43.538;-5.670;2022-08-21T13:24:35;101923.50;;;26.14;59.92
73334;BME280;61561;43.538;-5.670;2022-08-21T13:27:24;101926.78;;;26.25;59.95
73334;BME280;61561;43.538;-5.670;2022-08-21T13:38:24;101887.97;;;25.90;59.79
73334;BME280;61561;43.538;-5.670;2022-08-21T13:41:20;101937.91;;;26.25;59.52
73334;BME280;61561;43.538;-5.670;2022-08-21T13:43:58;101926.00;;;25.98;59.82
73334;BME280;61561;43.538;-5.670;2022-08-21T13:46:33;101884.69;;;25.88;59.27
73334;BME280;61561;43.538;-5.670;2022-08-21T13:49:00;101902.13;;;26.06;59.22
73334;BME280;61561;43.538;-5.670;2022-08-21T13:51:30;101894.13;;;26.04;59.03
73334;BME280;61561;43.538;-5.670;2022-08-21T13:53:57;101887.66;;;25.83;58.98
73334;BME280;61561;43.538;-5.670;2022-08-21T13:56:42;101928.59;;;26.12;58.43
73334;BME280;61561;43.538;-5.670;2022-08-21T13:59:42;101928.28;;;26.22;57.80
73334;BME280;61561;43.538;-5.670;2022-08-21T14:02:14;101913.94;;;25.86;57.82
73334;BME280;61561;43.538;-5.670;2022-08-21T14:04:54;101898.06;;;26.03;56.86
73334;BME280;61561;43.538;-5.670;2022-08-21T18:08:44;101880.78;;;24.47;64.49
73334;BME280;61561;43.538;-5.670;2022-08-21T18:11:14;101922.63;;;24.76;64.47
73334;BME280;61561;43.538;-5.670;2022-08-21T18:13:42;101910.06;;;24.70;64.18
73334;BME280;61561;43.538;-5.670;2022-08-21T18:16:09;101919.69;;;24.73;64.60
73334;BME280;61561;43.538;-5.670;2022-08-21T18:18:40;101905.56;;;24.43;65.12
73334;BME280;61561;43.538;-5.670;2022-08-21T18:21:07;101937.88;;;24.56;65.33
73334;BME280;61561;43.538;-5.670;2022-08-21T18:23:33;101919.22;;;24.40;65.65
73334;BME280;61561;43.538;-5.670;2022-08-21T18:26:01;101915.47;;;24.36;65.64
73334;BME280;61561;43.538;-5.670;2022-08-21T18:28:26;101908.47;;;24.38;65.48
73334;BME280;61561;43.538;-5.670;2022-08-21T18:30:53;101946.00;;;24.44;66.07
73334;BME280;61561;43.538;-5.670;2022-08-21T18:33:31;101935.63;;;24.28;66.49
73334;BME280;61561;43.538;-5.670;2022-08-21T18:35:57;101949.97;;;24.30;66.54
73334;BME280;61561;43.538;-5.670;2022-08-21T18:38:22;101948.38;;;24.29;66.84
73334;BME280;61561;43.538;-5.670;2022-08-21T18:40:51;101946.22;;;24.26;66.88
73334;BME280;61561;43.538;-5.670;2022-08-21T18:43:18;101937.56;;;24.19;66.54
73334;BME280;61561;43.538;-5.670;2022-08-21T18:45:46;101927.81;;;24.08;66.90
73334;BME280;61561;43.538;-5.670;2022-08-21T18:48:15;101916.56;;;24.04;67.01
73334;BME280;61561;43.538;-5.670;2022-08-21T18:50:46;101919.16;;;24.00;67.14
73334;BME280;61561;43.538;-5.670;2022-08-21T18:53:15;101949.91;;;24.13;67.10
73334;BME280;61561;43.538;-5.670;2022-08-21T18:55:45;101924.44;;;23.88;67.09
73334;BME280;61561;43.538;-5.670;2022-08-21T18:58:15;101921.75;;;23.97;66.87
73334;BME280;61561;43.538;-5.670;2022-08-21T19:00:45;101925.78;;;23.91;67.53
73334;BME280;61561;43.538;-5.670;2022-08-21T19:03:20;101941.88;;;24.11;67.27
73334;BME280;61561;43.538;-5.670;2022-08-21T19:05:51;101956.16;;;23.82;68.17
73334;BME280;61561;43.538;-5.670;2022-08-21T19:08:21;101930.38;;;23.73;68.14
73334;BME280;61561;43.538;-5.670;2022-08-21T19:10:49;101917.53;;;23.55;68.23
73334;BME280;61561;43.538;-5.670;2022-08-21T19:13:18;101917.78;;;23.45;68.79
73334;BME280;61561;43.538;-5.670;2022-08-21T19:15:58;101957.38;;;23.68;69.32
73334;BME280;61561;43.538;-5.670;2022-08-21T19:18:47;101930.00;;;23.66;68.97
73334;BME280;61561;43.538;-5.670;2022-08-21T19:21:13;101931.38;;;23.55;68.88
73334;BME280;61561;43.538;-5.670;2022-08-21T19:23:39;101954.22;;;23.61;69.22
73334;BME280;61561;43.538;-5.670;2022-08-21T19:26:06;101938.22;;;23.58;69.02
73334;BME280;61561;43.538;-5.670;2022-08-21T19:28:37;101927.41;;;23.47;69.36
73334;BME280;61561;43.538;-5.670;2022-08-21T19:31:15;101974.28;;;23.66;69.62
73334;BME280;61561;43.538;-5.670;2022-08-21T19:33:44;101925.63;;;23.16;69.91
73334;BME280;61561;43.538;-5.670;2022-08-21T19:36:12;101964.25;;;23.57;69.95
73334;BME280;61561;43.538;-5.670;2022-08-21T19:38:38;101935.72;;;23.34;69.71
73334;BME280;61561;43.538;-5.670;2022-08-21T19:41:09;101962.25;;;23.35;70.33
73334;BME280;61561;43.538;-5.670;2022-08-21T19:43:48;101976.72;;;23.45;70.45
73334;BME280;61561;43.538;-5.670;2022-08-21T23:52:18;102021.31;;;21.74;77.77
73334;BME280;61561;43.538;-5.670;2022-08-21T23:58:03;102025.84;;;21.83;77.28
